sensor_id;sensor_type;location;lat;lon;timestamp;pressure;altitude;pressure_sealevel;temperature;humidity
5952;BME280;3001;42.622;23.194;2022-09-17T00:01:34;90613.50;;;20.20;86.83
5952;BME280;3001;42.622;23.194;2022-09-17T00:04:02;90614.63;;;20.30;87.37
5952;BME280;3001;42.622;23.194;2022-09-17T00:06:32;90608.63;;;20.36;86.69
5952;BME280;3001;42.622;23.194;2022-09-17T00:08:59;90612.00;;;20.30;86.78
5952;BME280;3001;42.622;23.194;2022-09-17T00:11:30;90615.06;;;20.56;85.61
5952;BME280;3001;42.622;23.194;2022-09-17T00:13:58;90588.66;;;20.60;82.06
5952;BME280;3001;42.622;23.194;2022-09-17T00:16:28;90590.56;;;20.52;82.76
5952;BME280;3001;42.622;23.194;2022-09-17T00:18:56;90590.94;;;20.54;82.79
5952;BME280;3001;42.622;23.194;2022-09-17T00:21:24;90586.03;;;20.70;82.54
5952;BME280;3001;42.622;23.194;2022-09-17T00:23:56;90587.16;;;20.66;82.38
5952;BME280;3001;42.622;23.194;2022-09-17T00:26:24;90586.78;;;20.71;79.92
5952;BME280;3001;42.622;23.194;2022-09-17T00:28:52;90593.56;;;20.82;79.06
5952;BME280;3001;42.622;23.194;2022-09-17T00:31:20;90596.22;;;20.96;76.51
5952;BME280;3001;42.622;23.194;2022-09-17T00:33:47;90609.38;;;21.13;75.76
5952;BME280;3001;42.622;23.194;2022-09-17T00:36:14;90612.75;;;21.31;74.17
5952;BME280;3001;42.622;23.194;2022-09-17T00:38:41;90609.69;;;21.50;74.04
5952;BME280;3001;42.622;23.194;2022-09-17T00:41:09;90599.84;;;21.61;75.53
5952;BME280;3001;42.622;23.194;2022-09-17T00:43:41;90618.34;;;21.75;73.30
5952;BME280;3001;42.622;23.194;2022-09-17T00:46:23;90629.25;;;21.84;73.00
5952;BME280;3001;42.622;23.194;2022-09-17T00:48:51;90617.16;;;21.87;72.23
5952;BME280;3001;42.622;23.194;2022-09-17T00:51:26;90617.09;;;22.01;72.72
5952;BME280;3001;42.622;23.194;2022-09-17T00:53:55;90631.03;;;22.05;72.01
5952;BME280;3001;42.622;23.194;2022-09-17T00:56:25;90634.03;;;22.10;70.62
5952;BME280;3001;42.622;23.194;2022-09-17T00:58:53;90617.75;;;22.19;71.57
5952;BME280;3001;42.622;23.194;2022-09-17T01:01:21;90624.91;;;22.29;70.02
5952;BME280;3001;42.622;23.194;2022-09-17T01:03:47;90622.22;;;22.32;70.18
5952;BME280;3001;42.622;23.194;2022-09-17T01:06:19;90611.63;;;22.36;69.32
5952;BME280;3001;42.622;23.194;2022-09-17T01:09:00;90622.56;;;22.41;68.97
5952;BME280;3001;42.622;23.194;2022-09-17T01:11:46;90612.31;;;22.50;68.09
5952;BME280;3001;42.622;23.194;2022-09-17T01:14:24;90606.63;;;22.52;69.09
5952;BME280;3001;42.622;23.194;2022-09-17T01:16:59;90601.69;;;22.54;68.44
5952;BME280;3001;42.622;23.194;2022-09-17T01:19:51;90610.75;;;22.56;69.54
5952;BME280;3001;42.622;23.194;2022-09-17T01:22:26;90605.44;;;22.60;68.46
5952;BME280;3001;42.622;23.194;2022-09-17T01:25:20;90619.78;;;22.62;69.04
5952;BME280;3001;42.622;23.194;2022-09-17T01:28:11;90616.03;;;22.60;67.81
5952;BME280;3001;42.622;23.194;2022-09-17T01:30:59;90630.31;;;22.73;66.79
5952;BME280;3001;42.622;23.194;2022-09-17T01:33:34;90631.03;;;22.77;67.14
5952;BME280;3001;42.622;23.194;2022-09-17T01:36:19;90637.84;;;22.78;67.35
5952;BME280;3001;42.622;23.194;2022-09-17T01:38:52;90631.84;;;22.70;66.88
5952;BME280;3001;42.622;23.194;2022-09-17T01:41:27;90612.50;;;22.73;66.89
5952;BME280;3001;42.622;23.194;2022-09-17T01:44:00;90613.22;;;22.77;66.77
5952;BME280;3001;42.622;23.194;2022-09-17T01:46:32;90601.13;;;22.80;66.99
5952;BME280;3001;42.622;23.194;2022-09-17T01:49:04;90598.53;;;22.73;66.13
5952;BME280;3001;42.622;23.194;2022-09-17T01:51:35;90592.44;;;22.79;66.38
5952;BME280;3001;42.622;23.194;2022-09-17T01:54:08;90601.13;;;22.80;67.13
5952;BME280;3001;42.622;23.194;2022-09-17T01:56:39;90591.66;;;22.79;66.60
5952;BME280;3001;42.622;23.194;2022-09-17T01:59:13;90603.75;;;22.83;67.57
5952;BME280;3001;42.622;23.194;2022-09-17T02:01:46;90610.91;;;22.86;67.84
5952;BME280;3001;42.622;23.194;2022-09-17T02:04:18;90615.84;;;22.84;66.84
5952;BME280;3001;42.622;23.194;2022-09-17T02:06:52;90603.03;;;22.79;67.50
5952;BME280;3001;42.622;23.194;2022-09-17T02:09:26;90598.84;;;22.82;66.99
5952;BME280;3001;42.622;23.194;2022-09-17T02:11:58;90588.97;;;22.86;66.72
5952;BME280;3001;42.622;23.194;2022-09-17T02:14:30;90551.31;;;22.68;67.51
5952;BME280;3001;42.622;23.194;2022-09-17T02:17:06;90533.06;;;22.73;68.09
5952;BME280;3001;42.622;23.194;2022-09-17T02:19:35;90530.78;;;22.75;68.24
5952;BME280;3001;42.622;23.194;2022-09-17T02:22:11;90510.47;;;22.62;68.86
5952;BME280;3001;42.622;23.194;2022-09-17T02:24:45;90519.88;;;22.70;70.80
5952;BME280;3001;42.622;23.194;2022-09-17T02:27:19;90520.78;;;22.53;71.05
5952;BME280;3001;42.622;23.194;2022-09-17T02:29:48;90524.94;;;22.54;72.53
5952;BME280;3001;42.622;23.194;2022-09-17T02:32:17;90509.91;;;22.37;73.35
5952;BME280;3001;42.622;23.194;2022-09-17T02:34:43;90494.47;;;22.28;75.35
5952;BME280;3001;42.622;23.194;2022-09-17T02:37:10;90516.78;;;22.24;75.00
5952;BME280;3001;42.622;23.194;2022-09-17T02:39:37;90488.19;;;22.05;76.61
5952;BME280;3001;42.622;23.194;2022-09-17T02:42:11;90484.09;;;21.97;75.74
5952;BME280;3001;42.622;23.194;2022-09-17T02:44:47;90491.69;;;21.91;76.87
5952;BME280;3001;42.622;23.194;2022-09-17T02:47:35;90493.59;;;21.91;76.52
5952;BME280;3001;42.622;23.194;2022-09-17T02:50:14;90495.16;;;21.81;77.53
5952;BME280;3001;42.622;23.194;2022-09-17T02:52:57;90475.09;;;21.87;75.64
5952;BME280;3001;42.622;23.194;2022-09-17T02:55:31;90449.03;;;21.89;75.03
5952;BME280;3001;42.622;23.194;2022-09-17T02:58:08;90447.88;;;21.94;74.39
5952;BME280;3001;42.622;23.194;2022-09-17T03:00:39;90439.94;;;21.90;71.84
5952;BME280;3001;42.622;23.194;2022-09-17T03:03:11;90435.78;;;21.96;69.66
5952;BME280;3001;42.622;23.194;2022-09-17T03:05:40;90428.56;;;22.00;71.01
5952;BME280;3001;42.622;23.194;2022-09-17T03:08:11;90430.41;;;22.07;70.97
5952;BME280;3001;42.622;23.194;2022-09-17T03:10:39;90414.53;;;22.03;70.48
5952;BME280;3001;42.622;23.194;2022-09-17T03:13:06;90454.16;;;22.10;69.55
5952;BME280;3001;42.622;23.194;2022-09-17T03:15:32;90462.41;;;22.19;72.79
5952;BME280;3001;42.622;23.194;2022-09-17T03:17:59;90466.53;;;22.24;73.04
5952;BME280;3001;42.622;23.194;2022-09-17T03:20:27;90473.69;;;22.27;72.72
5952;BME280;3001;42.622;23.194;2022-09-17T03:22:54;90472.16;;;22.26;71.96
5952;BME280;3001;42.622;23.194;2022-09-17T03:25:21;90480.09;;;22.29;72.88
5952;BME280;3001;42.622;23.194;2022-09-17T03:27:47;90476.78;;;22.18;75.30
5952;BME280;3001;42.622;23.194;2022-09-17T03:30:14;90465.53;;;22.07;77.23
5952;BME280;3001;42.622;23.194;2022-09-17T03:32:41;90459.50;;;22.03;78.08
5952;BME280;3001;42.622;23.194;2022-09-17T03:35:08;90448.94;;;22.03;78.79
5952;BME280;3001;42.622;23.194;2022-09-17T03:37:36;90445.56;;;21.99;80.90
5952;BME280;3001;42.622;23.194;2022-09-17T03:40:06;90428.94;;;21.95;82.96
5952;BME280;3001;42.622;23.194;2022-09-17T03:42:33;90430.56;;;21.86;83.57
5952;BME280;3001;42.622;23.194;2022-09-17T03:45:00;90437.75;;;21.82;83.44
5952;BME280;3001;42.622;23.194;2022-09-17T03:47:26;90426.16;;;21.62;84.52
5952;BME280;3001;42.622;23.194;2022-09-17T03:49:53;90426.53;;;21.57;86.83
5952;BME280;3001;42.622;23.194;2022-09-17T03:52:20;90432.28;;;21.45;85.61
5952;BME280;3001;42.622;23.194;2022-09-17T03:54:48;90448.56;;;21.33;83.88
5952;BME280;3001;42.622;23.194;2022-09-17T03:57:15;90451.94;;;21.37;84.66
5952;BME280;3001;42.622;23.194;2022-09-17T03:59:42;90456.13;;;21.34;83.17
5952;BME280;3001;42.622;23.194;2022-09-17T04:02:09;90464.44;;;21.33;81.44
5952;BME280;3001;42.622;23.194;2022-09-17T04:04:35;90471.53;;;21.43;80.16
5952;BME280;3001;42.622;23.194;2022-09-17T04:07:03;90484.69;;;21.57;80.22
5952;BME280;3001;42.622;23.194;2022-09-17T04:09:30;90471.47;;;21.64;80.47
5952;BME280;3001;42.622;23.194;2022-09-17T04:11:58;90470.31;;;21.61;81.02
5952;BME280;3001;42.622;23.194;2022-09-17T04:14:25;90490.72;;;21.64;82.37
5952;BME280;3001;42.622;23.194;2022-09-17T04:16:52;90513.34;;;21.72;86.86
5952;BME280;3001;42.622;23.194;2022-09-17T04:19:18;90540.53;;;21.73;87.12
5952;BME280;3001;42.622;23.194;2022-09-17T04:21:45;90546.97;;;21.61;85.93
5952;BME280;3001;42.622;23.194;2022-09-17T04:24:12;90562.50;;;21.49;86.92
5952;BME280;3001;42.622;23.194;2022-09-17T04:26:38;90583.28;;;21.47;87.80
5952;BME280;3001;42.622;23.194;2022-09-17T04:29:06;90598.41;;;21.36;88.68
5952;BME280;3001;42.622;23.194;2022-09-17T04:31:34;90615.03;;;21.29;89.14
5952;BME280;3001;42.622;23.194;2022-09-17T04:34:01;90619.59;;;21.08;91.44
5952;BME280;3001;42.622;23.194;2022-09-17T04:36:28;90640.38;;;21.06;91.93
5952;BME280;3001;42.622;23.194;2022-09-17T04:38:54;90650.16;;;20.92;92.88
5952;BME280;3001;42.622;23.194;2022-09-17T04:41:21;90654.28;;;20.82;93.98
5952;BME280;3001;42.622;23.194;2022-09-17T04:43:48;90641.84;;;20.72;96.54
5952;BME280;3001;42.622;23.194;2022-09-17T04:46:16;90643.31;;;20.52;97.35
5952;BME280;3001;42.622;23.194;2022-09-17T04:48:43;90658.00;;;20.32;98.03
5952;BME280;3001;42.622;23.194;2022-09-17T04:51:09;90671.16;;;20.25;100.00
5952;BME280;3001;42.622;23.194;2022-09-17T04:53:36;90693.06;;;20.33;100.00
5952;BME280;3001;42.622;23.194;2022-09-17T04:56:04;90694.91;;;20.32;100.00
5952;BME280;3001;42.622;23.194;2022-09-17T04:58:30;90676.47;;;20.32;100.00
5952;BME280;3001;42.622;23.194;2022-09-17T05:00:57;90660.25;;;20.37;100.00
5952;BME280;3001;42.622;23.194;2022-09-17T05:03:26;90641.78;;;20.37;100.00
5952;BME280;3001;42.622;23.194;2022-09-17T05:05:52;90645.94;;;20.35;100.00
5952;BME280;3001;42.622;23.194;2022-09-17T05:08:19;90637.25;;;20.34;100.00
5952;BME280;3001;42.622;23.194;2022-09-17T05:10:48;90646.31;;;20.37;100.00
5952;BME280;3001;42.622;23.194;2022-09-17T05:13:15;90628.97;;;20.32;100.00
5952;BME280;3001;42.622;23.194;2022-09-17T05:15:42;90627.09;;;20.22;100.00
5952;BME280;3001;42.622;23.194;2022-09-17T05:18:09;90621.81;;;20.29;100.00
5952;BME280;3001;42.622;23.194;2022-09-17T05:20:38;90603.34;;;20.22;100.00
5952;BME280;3001;42.622;23.194;2022-09-17T05:23:04;90585.59;;;20.09;100.00
5952;BME280;3001;42.622;23.194;2022-09-17T05:25:31;90592.75;;;20.05;100.00
5952;BME280;3001;42.622;23.194;2022-09-17T05:27:58;90595.41;;;20.08;100.00
5952;BME280;3001;42.622;23.194;2022-09-17T05:30:25;90601.06;;;20.10;100.00
5952;BME280;3001;42.622;23.194;2022-09-17T05:32:58;90610.09;;;20.09;100.00
5952;BME280;3001;42.622;23.194;2022-09-17T05:35:25;90619.88;;;20.05;100.00
5952;BME280;3001;42.622;23.194;2022-09-17T05:37:57;90614.25;;;20.10;100.00
5952;BME280;3001;42.622;23.194;2022-09-17T05:40:24;90610.47;;;20.11;100.00
5952;BME280;3001;42.622;23.194;2022-09-17T05:42:51;90613.41;;;19.99;100.00
5952;BME280;3001;42.622;23.194;2022-09-17T05:45:18;90610.72;;;19.78;100.00
5952;BME280;3001;42.622;23.194;2022-09-17T05:47:44;90614.88;;;19.76;100.00
5952;BME280;3001;42.622;23.194;2022-09-17T05:50:11;90609.22;;;19.81;100.00
5952;BME280;3001;42.622;23.194;2022-09-17T05:52:38;90614.94;;;19.97;100.00
5952;BME280;3001;42.622;23.194;2022-09-17T05:55:06;90618.03;;;20.13;100.00
5952;BME280;3001;42.622;23.194;2022-09-17T05:57:33;90608.94;;;20.07;100.00
5952;BME280;3001;42.622;23.194;2022-09-17T06:00:00;90596.09;;;19.95;100.00
5952;BME280;3001;42.622;23.194;2022-09-17T06:02:30;90590.81;;;19.95;100.00
5952;BME280;3001;42.622;23.194;2022-09-17T06:04:57;90600.59;;;19.87;100.00
5952;BME280;3001;42.622;23.194;2022-09-17T06:07:26;90586.59;;;19.76;100.00
5952;BME280;3001;42.622;23.194;2022-09-17T06:09:53;90594.94;;;19.92;100.00
5952;BME280;3001;42.622;23.194;2022-09-17T06:12:21;90603.63;;;19.96;100.00
5952;BME280;3001;42.622;23.194;2022-09-17T06:14:48;90605.91;;;19.98;100.00
5952;BME280;3001;42.622;23.194;2022-09-17T06:17:14;90615.38;;;20.09;100.00
5952;BME280;3001;42.622;23.194;2022-09-17T06:19:41;90618.03;;;20.13;100.00
5952;BME280;3001;42.622;23.194;2022-09-17T06:22:08;90632.72;;;20.28;100.00
5952;BME280;3001;42.622;23.194;2022-09-17T06:24:34;90636.88;;;20.25;100.00
5952;BME280;3001;42.622;23.194;2022-09-17T06:27:01;90636.88;;;20.39;100.00
5952;BME280;3001;42.622;23.194;2022-09-17T06:29:30;90647.06;;;20.34;100.00
5952;BME280;3001;42.622;23.194;2022-09-17T06:31:57;90649.72;;;20.44;100.00
5952;BME280;3001;42.622;23.194;2022-09-17T06:34:25;90654.22;;;20.40;100.00
5952;BME280;3001;42.622;23.194;2022-09-17T06:36:52;90663.66;;;20.34;100.00
5952;BME280;3001;42.622;23.194;2022-09-17T06:39:18;90659.47;;;20.23;100.00
5952;BME280;3001;42.622;23.194;2022-09-17T06:41:45;90635.00;;;20.29;100.00
5952;BME280;3001;42.622;23.194;2022-09-17T06:44:12;90620.63;;;20.09;100.00
5952;BME280;3001;42.622;23.194;2022-09-17T06:46:40;90617.97;;;20.06;100.00
5952;BME280;3001;42.622;23.194;2022-09-17T06:49:08;90619.81;;;19.91;100.00
5952;BME280;3001;42.622;23.194;2022-09-17T06:51:36;90610.34;;;19.76;100.00
5952;BME280;3001;42.622;23.194;2022-09-17T06:54:02;90608.88;;;19.82;100.00
5952;BME280;3001;42.622;23.194;2022-09-17T06:56:29;90607.72;;;19.87;100.00
5952;BME280;3001;42.622;23.194;2022-09-17T06:58:59;90592.28;;;19.89;100.00
5952;BME280;3001;42.622;23.194;2022-09-17T07:01:26;90586.22;;;19.74;100.00
5952;BME280;3001;42.622;23.194;2022-09-17T07:03:54;90565.94;;;19.82;100.00
5952;BME280;3001;42.622;23.194;2022-09-17T07:06:21;90550.13;;;19.85;100.00
5952;BME280;3001;42.622;23.194;2022-09-17T07:08:47;90557.25;;;19.71;100.00
5952;BME280;3001;42.622;23.194;2022-09-17T07:11:14;90545.16;;;19.59;100.00
5952;BME280;3001;42.622;23.194;2022-09-17T07:13:41;90537.25;;;19.56;100.00
5952;BME280;3001;42.622;23.194;2022-09-17T07:16:09;90539.88;;;19.56;100.00
5952;BME280;3001;42.622;23.194;2022-09-17T07:18:36;90526.00;;;19.73;100.00
5952;BME280;3001;42.622;23.194;2022-09-17T07:21:05;90528.28;;;19.81;100.00
5952;BME280;3001;42.622;23.194;2022-09-17T07:23:33;90553.59;;;20.03;100.00
5952;BME280;3001;42.622;23.194;2022-09-17T07:26:02;90552.06;;;20.06;100.00
5952;BME280;3001;42.622;23.194;2022-09-17T07:28:29;90541.91;;;20.11;100.00
5952;BME280;3001;42.622;23.194;2022-09-17T07:30:56;90557.00;;;20.39;100.00
5952;BME280;3001;42.622;23.194;2022-09-17T07:33:25;90541.91;;;20.39;94.13
5952;BME280;3001;42.622;23.194;2022-09-17T07:35:53;90545.31;;;20.64;95.84
5952;BME280;3001;42.622;23.194;2022-09-17T07:38:21;90541.91;;;20.71;96.96
5952;BME280;3001;42.622;23.194;2022-09-17T07:40:54;90534.00;;;20.74;98.99
5952;BME280;3001;42.622;23.194;2022-09-17T07:43:22;90538.88;;;20.83;92.82
5952;BME280;3001;42.622;23.194;2022-09-17T07:45:49;90532.13;;;20.85;92.38
5952;BME280;3001;42.622;23.194;2022-09-17T07:48:17;90532.09;;;20.99;95.95
5952;BME280;3001;42.622;23.194;2022-09-17T07:50:44;90529.75;;;21.22;97.82
5952;BME280;3001;42.622;23.194;2022-09-17T07:53:10;90534.59;;;21.44;96.49
5952;BME280;3001;42.622;23.194;2022-09-17T07:55:38;90523.56;;;21.60;96.27
5952;BME280;3001;42.622;23.194;2022-09-17T07:58:05;90517.53;;;21.59;93.26
5952;BME280;3001;42.622;23.194;2022-09-17T08:00:32;90518.97;;;21.78;91.16
5952;BME280;3001;42.622;23.194;2022-09-17T08:02:58;90518.91;;;21.88;92.14
5952;BME280;3001;42.622;23.194;2022-09-17T08:05:26;90507.91;;;21.97;95.22
5952;BME280;3001;42.622;23.194;2022-09-17T08:07:53;90501.44;;;22.05;96.26
5952;BME280;3001;42.622;23.194;2022-09-17T08:10:21;90501.28;;;22.26;89.73
5952;BME280;3001;42.622;23.194;2022-09-17T08:12:50;90502.47;;;22.18;92.39
5952;BME280;3001;42.622;23.194;2022-09-17T08:15:20;90497.97;;;22.18;95.69
5952;BME280;3001;42.622;23.194;2022-09-17T08:17:47;90502.47;;;22.18;90.91
5952;BME280;3001;42.622;23.194;2022-09-17T08:20:14;90499.41;;;22.26;91.75
5952;BME280;3001;42.622;23.194;2022-09-17T08:22:41;90500.47;;;22.39;93.09
5952;BME280;3001;42.622;23.194;2022-09-17T08:25:09;90492.09;;;22.48;94.43
5952;BME280;3001;42.622;23.194;2022-09-17T08:27:36;90498.00;;;22.62;92.83
5952;BME280;3001;42.622;23.194;2022-09-17T08:30:06;90490.66;;;22.80;92.17
5952;BME280;3001;42.622;23.194;2022-09-17T08:32:33;90504.94;;;22.90;90.72
5952;BME280;3001;42.622;23.194;2022-09-17T08:35:00;90505.69;;;22.90;90.96
5952;BME280;3001;42.622;23.194;2022-09-17T08:37:27;90509.47;;;22.89;88.77
5952;BME280;3001;42.622;23.194;2022-09-17T08:39:55;90516.28;;;22.90;86.80
5952;BME280;3001;42.622;23.194;2022-09-17T08:42:26;90499.94;;;22.95;87.13
5952;BME280;3001;42.622;23.194;2022-09-17T08:44:58;90499.59;;;22.93;89.60
5952;BME280;3001;42.622;23.194;2022-09-17T08:47:32;90501.50;;;22.92;92.57
5952;BME280;3001;42.622;23.194;2022-09-17T08:50:03;90509.00;;;23.01;93.71
5952;BME280;3001;42.622;23.194;2022-09-17T08:52:45;90525.69;;;22.94;94.61
5952;BME280;3001;42.622;23.194;2022-09-17T08:55:21;90508.06;;;22.81;91.20
5952;BME280;3001;42.622;23.194;2022-09-17T08:57:56;90504.72;;;22.70;90.42
5952;BME280;3001;42.622;23.194;2022-09-17T09:00:32;90513.09;;;22.65;91.14
5952;BME280;3001;42.622;23.194;2022-09-17T09:03:20;90512.44;;;22.54;91.39
5952;BME280;3001;42.622;23.194;2022-09-17T09:05:51;90515.78;;;22.62;90.99
5952;BME280;3001;42.622;23.194;2022-09-17T09:08:24;90505.97;;;22.59;92.86
5952;BME280;3001;42.622;23.194;2022-09-17T09:10:56;90508.94;;;22.68;93.34
5952;BME280;3001;42.622;23.194;2022-09-17T09:13:25;90522.53;;;22.70;94.87
5952;BME280;3001;42.622;23.194;2022-09-17T09:15:55;90532.75;;;22.68;94.20
5952;BME280;3001;42.622;23.194;2022-09-17T09:18:28;90529.06;;;22.58;96.43
5952;BME280;3001;42.622;23.194;2022-09-17T09:21:02;90538.59;;;22.49;97.79
5952;BME280;3001;42.622;23.194;2022-09-17T09:23:36;90544.59;;;22.53;100.00
5952;BME280;3001;42.622;23.194;2022-09-17T09:26:15;90546.25;;;22.29;99.80
5952;BME280;3001;42.622;23.194;2022-09-17T09:29:03;90562.19;;;22.19;100.00
5952;BME280;3001;42.622;23.194;2022-09-17T09:31:45;90571.69;;;22.09;100.00
5952;BME280;3001;42.622;23.194;2022-09-17T09:34:15;90579.25;;;22.11;100.00
5952;BME280;3001;42.622;23.194;2022-09-17T09:36:43;90589.78;;;22.21;100.00
5952;BME280;3001;42.622;23.194;2022-09-17T09:39:14;90604.94;;;22.17;100.00
5952;BME280;3001;42.622;23.194;2022-09-17T09:41:46;90618.16;;;22.10;100.00
5952;BME280;3001;42.622;23.194;2022-09-17T09:44:15;90626.97;;;21.90;100.00
5952;BME280;3001;42.622;23.194;2022-09-17T09:47:02;90631.56;;;21.68;100.00
5952;BME280;3001;42.622;23.194;2022-09-17T09:49:46;90633.84;;;21.56;100.00
5952;BME280;3001;42.622;23.194;2022-09-17T09:52:25;90628.97;;;21.44;100.00
5952;BME280;3001;42.622;23.194;2022-09-17T09:55:11;90586.31;;;21.45;100.00
5952;BME280;3001;42.622;23.194;2022-09-17T09:57:43;90570.88;;;21.30;100.00
5952;BME280;3001;42.622;23.194;2022-09-17T10:00:23;90553.16;;;21.20;100.00
5952;BME280;3001;42.622;23.194;2022-09-17T10:02:52;90513.22;;;21.01;100.00
5952;BME280;3001;42.622;23.194;2022-09-17T10:05:22;90475.56;;;20.86;100.00
5952;BME280;3001;42.622;23.194;2022-09-17T10:07:49;90470.25;;;20.69;100.00
5952;BME280;3001;42.622;23.194;2022-09-17T10:10:16;90471.81;;;20.52;100.00
5952;BME280;3001;42.622;23.194;2022-09-17T10:12:43;90452.22;;;20.43;100.00
5952;BME280;3001;42.622;23.194;2022-09-17T10:15:24;90443.22;;;20.26;100.00
5952;BME280;3001;42.622;23.194;2022-09-17T10:18:15;90435.28;;;20.26;100.00
5952;BME280;3001;42.622;23.194;2022-09-17T10:20:51;90447.00;;;20.15;100.00
5952;BME280;3001;42.622;23.194;2022-09-17T10:23:18;90448.84;;;20.21;100.00
5952;BME280;3001;42.622;23.194;2022-09-17T10:25:46;90450.75;;;20.14;100.00
5952;BME280;3001;42.622;23.194;2022-09-17T10:28:44;90450.34;;;19.98;100.00
5952;BME280;3001;42.622;23.194;2022-09-17T10:31:12;90450.72;;;19.89;100.00
5952;BME280;3001;42.622;23.194;2022-09-17T10:33:50;90436.41;;;19.69;100.00
5952;BME280;3001;42.622;23.194;2022-09-17T10:36:36;90449.94;;;19.71;100.00
5952;BME280;3001;42.622;23.194;2022-09-17T10:42:13;90426.59;;;19.66;100.00
5952;BME280;3001;42.622;23.194;2022-09-17T10:44:50;90417.19;;;19.83;100.00
5952;BME280;3001;42.622;23.194;2022-09-17T10:47:21;90425.84;;;19.87;100.00
5952;BME280;3001;42.622;23.194;2022-09-17T10:49:52;90406.28;;;19.95;100.00
5952;BME280;3001;42.622;23.194;2022-09-17T10:52:24;90402.50;;;19.71;100.00
5952;BME280;3001;42.622;23.194;2022-09-17T10:58:03;90403.25;;;19.75;100.00
5952;BME280;3001;42.622;23.194;2022-09-17T11:00:43;90408.94;;;19.84;100.00
5952;BME280;3001;42.622;23.194;2022-09-17T11:03:28;90409.66;;;19.85;99.43
5952;BME280;3001;42.622;23.194;2022-09-17T11:06:16;90408.56;;;19.82;98.16
5952;BME280;3001;42.622;23.194;2022-09-17T11:08:57;90437.91;;;19.77;95.34
5952;BME280;3001;42.622;23.194;2022-09-17T11:11:35;90421.75;;;20.03;98.93
5952;BME280;3001;42.622;23.194;2022-09-17T11:14:13;90437.94;;;20.05;96.29
5952;BME280;3001;42.622;23.194;2022-09-17T11:16:50;90424.38;;;20.10;97.80
5952;BME280;3001;42.622;23.194;2022-09-17T11:19:28;90416.47;;;20.07;97.90
5952;BME280;3001;42.622;23.194;2022-09-17T11:22:09;90433.78;;;20.25;93.01
5952;BME280;3001;42.622;23.194;2022-09-17T11:25:07;90420.63;;;20.15;95.68
5952;BME280;3001;42.622;23.194;2022-09-17T11:27:48;90423.63;;;20.27;96.08
5952;BME280;3001;42.622;23.194;2022-09-17T11:30:21;90412.31;;;20.16;94.11
5952;BME280;3001;42.622;23.194;2022-09-17T11:33:15;90418.34;;;20.20;94.11
5952;BME280;3001;42.622;23.194;2022-09-17T11:35:46;90413.81;;;20.31;94.40
5952;BME280;3001;42.622;23.194;2022-09-17T11:38:18;90421.38;;;20.19;94.58
5952;BME280;3001;42.622;23.194;2022-09-17T11:40:51;90414.97;;;20.13;94.77
5952;BME280;3001;42.622;23.194;2022-09-17T11:43:25;90417.59;;;20.13;99.25
5952;BME280;3001;42.622;23.194;2022-09-17T11:45:59;90395.75;;;19.70;97.91
5952;BME280;3001;42.622;23.194;2022-09-17T11:48:32;90409.69;;;19.88;100.00
5952;BME280;3001;42.622;23.194;2022-09-17T11:51:07;90395.34;;;19.86;100.00
5952;BME280;3001;42.622;23.194;2022-09-17T11:53:40;90414.19;;;19.70;99.69
5952;BME280;3001;42.622;23.194;2022-09-17T11:56:16;90423.59;;;19.82;99.47
5952;BME280;3001;42.622;23.194;2022-09-17T11:58:49;90423.22;;;19.69;100.00
5952;BME280;3001;42.622;23.194;2022-09-17T12:01:20;90432.63;;;19.60;100.00
5952;BME280;3001;42.622;23.194;2022-09-17T12:03:55;90435.63;;;19.55;100.00
5952;BME280;3001;42.622;23.194;2022-09-17T12:06:30;90426.22;;;19.54;100.00
5952;BME280;3001;42.622;23.194;2022-09-17T12:09:03;90444.66;;;19.61;100.00
5952;BME280;3001;42.622;23.194;2022-09-17T12:11:40;90436.38;;;19.66;100.00
5952;BME280;3001;42.622;23.194;2022-09-17T12:14:14;90448.44;;;19.63;100.00
5952;BME280;3001;42.622;23.194;2022-09-17T12:16:45;90427.00;;;19.61;100.00
5952;BME280;3001;42.622;23.194;2022-09-17T12:19:16;90437.09;;;19.49;100.00
5952;BME280;3001;42.622;23.194;2022-09-17T12:21:48;90416.81;;;19.60;100.00
5952;BME280;3001;42.622;23.194;2022-09-17T12:24:21;90422.84;;;19.57;100.00
5952;BME280;3001;42.622;23.194;2022-09-17T12:27:10;90400.63;;;19.65;100.00
5952;BME280;3001;42.622;23.194;2022-09-17T12:30:07;90418.69;;;19.63;99.39
5952;BME280;3001;42.622;23.194;2022-09-17T12:32:56;90402.50;;;19.50;100.00
5952;BME280;3001;42.622;23.194;2022-09-17T12:38:33;90407.75;;;19.33;100.00
5952;BME280;3001;42.622;23.194;2022-09-17T12:41:10;90398.31;;;19.22;100.00
5952;BME280;3001;42.622;23.194;2022-09-17T12:44:02;90399.47;;;19.27;100.00
5952;BME280;3001;42.622;23.194;2022-09-17T12:46:58;90398.63;;;19.03;100.00
5952;BME280;3001;42.622;23.194;2022-09-17T12:49:49;90385.50;;;19.13;100.00
5952;BME280;3001;42.622;23.194;2022-09-17T12:52:28;90383.59;;;19.10;100.00
5952;BME280;3001;42.622;23.194;2022-09-17T12:55:11;90391.06;;;18.94;100.00
5952;BME280;3001;42.622;23.194;2022-09-17T12:57:49;90374.50;;;18.87;100.00
5952;BME280;3001;42.622;23.194;2022-09-17T13:00:20;90378.66;;;18.88;100.00
5952;BME280;3001;42.622;23.194;2022-09-17T13:03:01;90371.88;;;18.80;100.00
5952;BME280;3001;42.622;23.194;2022-09-17T13:05:59;90371.91;;;18.90;100.00
5952;BME280;3001;42.622;23.194;2022-09-17T13:08:56;90370.38;;;18.93;100.00
5952;BME280;3001;42.622;23.194;2022-09-17T13:12:00;90363.22;;;18.90;100.00
5952;BME280;3001;42.622;23.194;2022-09-17T13:14:43;90374.53;;;18.94;100.00
5952;BME280;3001;42.622;23.194;2022-09-17T13:17:22;90348.22;;;18.90;100.00
5952;BME280;3001;42.622;23.194;2022-09-17T13:19:57;90339.16;;;18.81;100.00
5952;BME280;3001;42.622;23.194;2022-09-17T13:22:28;90351.59;;;18.98;100.00
5952;BME280;3001;42.622;23.194;2022-09-17T13:25:03;90348.59;;;19.06;100.00
5952;BME280;3001;42.622;23.194;2022-09-17T13:27:30;90352.75;;;19.04;100.00
5952;BME280;3001;42.622;23.194;2022-09-17T13:29:58;90340.69;;;18.99;100.00
5952;BME280;3001;42.622;23.194;2022-09-17T13:35:49;90334.66;;;18.85;100.00
5952;BME280;3001;42.622;23.194;2022-09-17T13:38:17;90319.97;;;18.73;100.00
5952;BME280;3001;42.622;23.194;2022-09-17T13:40:45;90287.25;;;18.71;100.00
5952;BME280;3001;42.622;23.194;2022-09-17T13:43:15;90302.31;;;18.70;100.00